sensor_id;sensor_type;location;lat;lon;timestamp;P1;durP1;ratioP1;P2;durP2;ratioP2
39266;SDS011;24967;51.154;13.812;2023-06-14T00:01:01;2.40;;;2.15;;
39266;SDS011;24967;51.154;13.812;2023-06-14T00:03:31;2.63;;;2.42;;
39266;SDS011;24967;51.154;13.812;2023-06-14T00:05:57;3.53;;;1.90;;
39266;SDS011;24967;51.154;13.812;2023-06-14T00:08:24;2.35;;;1.98;;
39266;SDS011;24967;51.154;13.812;2023-06-14T00:10:51;2.20;;;2.10;;
39266;SDS011;24967;51.154;13.812;2023-06-14T00:13:17;2.88;;;2.03;;
39266;SDS011;24967;51.154;13.812;2023-06-14T00:15:45;2.67;;;2.00;;
39266;SDS011;24967;51.154;13.812;2023-06-14T00:18:12;3.63;;;2.60;;
39266;SDS011;24967;51.154;13.812;2023-06-14T00:20:39;2.28;;;2.17;;
39266;SDS011;24967;51.154;13.812;2023-06-14T00:23:07;2.20;;;1.92;;
39266;SDS011;24967;51.154;13.812;2023-06-14T00:25:34;2.63;;;2.42;;
39266;SDS011;24967;51.154;13.812;2023-06-14T00:28:00;2.75;;;2.22;;
39266;SDS011;24967;51.154;13.812;2023-06-14T00:30:27;3.28;;;2.60;;
39266;SDS011;24967;51.154;13.812;2023-06-14T00:32:56;2.75;;;2.55;;
39266;SDS011;24967;51.154;13.812;2023-06-14T00:35:23;3.78;;;2.40;;
39266;SDS011;24967;51.154;13.812;2023-06-14T00:37:50;2.85;;;2.65;;
39266;SDS011;24967;51.154;13.812;2023-06-14T00:40:16;4.15;;;2.97;;
39266;SDS011;24967;51.154;13.812;2023-06-14T00:42:43;3.80;;;2.22;;
39266;SDS011;24967;51.154;13.812;2023-06-14T00:45:10;2.70;;;2.50;;
39266;SDS011;24967;51.154;13.812;2023-06-14T00:47:36;2.75;;;2.55;;
39266;SDS011;24967;51.154;13.812;2023-06-14T00:50:07;5.30;;;2.70;;
39266;SDS011;24967;51.154;13.812;2023-06-14T00:52:34;3.25;;;2.20;;
39266;SDS011;24967;51.154;13.812;2023-06-14T00:55:02;4.55;;;2.83;;
39266;SDS011;24967;51.154;13.812;2023-06-14T00:57:29;3.33;;;2.50;;
39266;SDS011;24967;51.154;13.812;2023-06-14T00:59:55;2.90;;;2.70;;
39266;SDS011;24967;51.154;13.812;2023-06-14T01:02:22;3.33;;;2.47;;
39266;SDS011;24967;51.154;13.812;2023-06-14T01:04:49;2.70;;;2.50;;
39266;SDS011;24967;51.154;13.812;2023-06-14T01:07:20;2.75;;;2.47;;
39266;SDS011;24967;51.154;13.812;2023-06-14T01:09:57;2.75;;;2.60;;
39266;SDS011;24967;51.154;13.812;2023-06-14T01:12:31;2.95;;;2.75;;
39266;SDS011;24967;51.154;13.812;2023-06-14T01:15:03;3.65;;;2.40;;
39266;SDS011;24967;51.154;13.812;2023-06-14T01:17:30;2.90;;;2.70;;
39266;SDS011;24967;51.154;13.812;2023-06-14T01:19:58;3.47;;;3.17;;
39266;SDS011;24967;51.154;13.812;2023-06-14T01:22:29;3.67;;;2.60;;
39266;SDS011;24967;51.154;13.812;2023-06-14T01:24:58;4.32;;;2.90;;
39266;SDS011;24967;51.154;13.812;2023-06-14T01:27:25;5.22;;;2.55;;
39266;SDS011;24967;51.154;13.812;2023-06-14T01:29:53;3.42;;;3.10;;
39266;SDS011;24967;51.154;13.812;2023-06-14T01:32:22;2.92;;;2.72;;
39266;SDS011;24967;51.154;13.812;2023-06-14T01:34:50;3.17;;;2.92;;
39266;SDS011;24967;51.154;13.812;2023-06-14T01:37:17;3.25;;;2.95;;
39266;SDS011;24967;51.154;13.812;2023-06-14T01:39:45;2.72;;;2.63;;
39266;SDS011;24967;51.154;13.812;2023-06-14T01:42:14;3.28;;;2.97;;
39266;SDS011;24967;51.154;13.812;2023-06-14T01:44:42;3.53;;;3.03;;
39266;SDS011;24967;51.154;13.812;2023-06-14T01:47:10;3.25;;;3.05;;
39266;SDS011;24967;51.154;13.812;2023-06-14T01:49:38;3.15;;;2.95;;
39266;SDS011;24967;51.154;13.812;2023-06-14T01:52:05;2.90;;;2.70;;
39266;SDS011;24967;51.154;13.812;2023-06-14T01:54:34;2.92;;;2.70;;
39266;SDS011;24967;51.154;13.812;2023-06-14T01:57:03;2.90;;;2.70;;
39266;SDS011;24967;51.154;13.812;2023-06-14T01:59:31;3.22;;;2.92;;
39266;SDS011;24967;51.154;13.812;2023-06-14T02:02:00;3.30;;;3.00;;
39266;SDS011;24967;51.154;13.812;2023-06-14T02:04:26;4.80;;;3.03;;
39266;SDS011;24967;51.154;13.812;2023-06-14T02:06:52;3.08;;;2.88;;
39266;SDS011;24967;51.154;13.812;2023-06-14T02:09:19;3.28;;;3.08;;
39266;SDS011;24967;51.154;13.812;2023-06-14T02:11:45;5.45;;;3.30;;
39266;SDS011;24967;51.154;13.812;2023-06-14T02:14:12;3.25;;;3.05;;
39266;SDS011;24967;51.154;13.812;2023-06-14T02:16:41;4.45;;;3.13;;
39266;SDS011;24967;51.154;13.812;2023-06-14T02:19:13;3.22;;;3.03;;
39266;SDS011;24967;51.154;13.812;2023-06-14T02:21:40;2.88;;;2.67;;
39266;SDS011;24967;51.154;13.812;2023-06-14T02:24:06;3.88;;;3.00;;
39266;SDS011;24967;51.154;13.812;2023-06-14T02:26:33;4.57;;;2.70;;
39266;SDS011;24967;51.154;13.812;2023-06-14T02:28:59;3.65;;;3.35;;
39266;SDS011;24967;51.154;13.812;2023-06-14T02:31:26;3.00;;;2.65;;
39266;SDS011;24967;51.154;13.812;2023-06-14T02:33:54;3.08;;;2.80;;
39266;SDS011;24967;51.154;13.812;2023-06-14T02:36:20;3.60;;;3.03;;
39266;SDS011;24967;51.154;13.812;2023-06-14T02:38:46;3.05;;;2.80;;
39266;SDS011;24967;51.154;13.812;2023-06-14T02:41:13;2.72;;;2.53;;
39266;SDS011;24967;51.154;13.812;2023-06-14T02:43:39;2.83;;;2.63;;
39266;SDS011;24967;51.154;13.812;2023-06-14T02:46:06;3.47;;;3.17;;
39266;SDS011;24967;51.154;13.812;2023-06-14T02:48:33;2.97;;;2.65;;
39266;SDS011;24967;51.154;13.812;2023-06-14T02:51:00;3.00;;;2.80;;
39266;SDS011;24967;51.154;13.812;2023-06-14T02:53:27;3.25;;;2.80;;
39266;SDS011;24967;51.154;13.812;2023-06-14T02:55:53;3.33;;;3.03;;
39266;SDS011;24967;51.154;13.812;2023-06-14T02:58:20;2.80;;;2.60;;
39266;SDS011;24967;51.154;13.812;2023-06-14T03:00:46;3.13;;;2.92;;
39266;SDS011;24967;51.154;13.812;2023-06-14T03:03:13;3.22;;;2.97;;
39266;SDS011;24967;51.154;13.812;2023-06-14T03:05:41;3.17;;;2.88;;
39266;SDS011;24967;51.154;13.812;2023-06-14T03:08:12;3.28;;;2.97;;
39266;SDS011;24967;51.154;13.812;2023-06-14T03:10:41;2.90;;;2.70;;
39266;SDS011;24967;51.154;13.812;2023-06-14T03:13:08;3.60;;;3.30;;
39266;SDS011;24967;51.154;13.812;2023-06-14T03:15:35;3.10;;;2.90;;
39266;SDS011;24967;51.154;13.812;2023-06-14T03:18:02;3.15;;;2.95;;
39266;SDS011;24967;51.154;13.812;2023-06-14T03:20:28;4.40;;;3.20;;
39266;SDS011;24967;51.154;13.812;2023-06-14T03:22:58;3.33;;;3.03;;
39266;SDS011;24967;51.154;13.812;2023-06-14T03:25:25;3.70;;;3.40;;
39266;SDS011;24967;51.154;13.812;2023-06-14T03:27:54;3.50;;;3.20;;
39266;SDS011;24967;51.154;13.812;2023-06-14T03:30:20;3.10;;;2.90;;
39266;SDS011;24967;51.154;13.812;2023-06-14T03:32:47;3.88;;;3.20;;
39266;SDS011;24967;51.154;13.812;2023-06-14T03:35:13;3.13;;;2.85;;
39266;SDS011;24967;51.154;13.812;2023-06-14T03:37:42;5.32;;;3.60;;
39266;SDS011;24967;51.154;13.812;2023-06-14T03:40:09;3.28;;;3.00;;
39266;SDS011;24967;51.154;13.812;2023-06-14T03:42:37;4.60;;;3.38;;
39266;SDS011;24967;51.154;13.812;2023-06-14T03:45:04;4.55;;;3.10;;
39266;SDS011;24967;51.154;13.812;2023-06-14T03:47:32;3.08;;;2.97;;
39266;SDS011;24967;51.154;13.812;2023-06-14T03:50:00;3.40;;;3.20;;
39266;SDS011;24967;51.154;13.812;2023-06-14T03:52:27;4.47;;;3.40;;
39266;SDS011;24967;51.154;13.812;2023-06-14T03:54:56;3.35;;;3.10;;
39266;SDS011;24967;51.154;13.812;2023-06-14T03:57:24;3.50;;;3.30;;
39266;SDS011;24967;51.154;13.812;2023-06-14T03:59:52;4.45;;;3.25;;
39266;SDS011;24967;51.154;13.812;2023-06-14T04:02:18;4.05;;;3.28;;
39266;SDS011;24967;51.154;13.812;2023-06-14T04:04:45;4.07;;;3.60;;
39266;SDS011;24967;51.154;13.812;2023-06-14T04:07:13;3.67;;;3.45;;
39266;SDS011;24967;51.154;13.812;2023-06-14T04:09:40;4.07;;;3.20;;
39266;SDS011;24967;51.154;13.812;2023-06-14T04:12:07;3.90;;;3.58;;
39266;SDS011;24967;51.154;13.812;2023-06-14T04:14:36;3.35;;;3.13;;
39266;SDS011;24967;51.154;13.812;2023-06-14T04:17:04;3.80;;;3.50;;
39266;SDS011;24967;51.154;13.812;2023-06-14T04:19:31;5.22;;;3.67;;
39266;SDS011;24967;51.154;13.812;2023-06-14T04:21:57;5.95;;;3.40;;
39266;SDS011;24967;51.154;13.812;2023-06-14T04:24:26;4.30;;;3.90;;
39266;SDS011;24967;51.154;13.812;2023-06-14T04:26:57;4.85;;;4.35;;
39266;SDS011;24967;51.154;13.812;2023-06-14T04:29:26;7.28;;;3.90;;
39266;SDS011;24967;51.154;13.812;2023-06-14T04:31:54;4.55;;;4.15;;
39266;SDS011;24967;51.154;13.812;2023-06-14T04:34:25;4.85;;;4.25;;
39266;SDS011;24967;51.154;13.812;2023-06-14T04:36:54;4.70;;;4.20;;
39266;SDS011;24967;51.154;13.812;2023-06-14T04:39:22;4.55;;;4.25;;
39266;SDS011;24967;51.154;13.812;2023-06-14T04:41:50;4.70;;;3.97;;
39266;SDS011;24967;51.154;13.812;2023-06-14T04:44:18;5.80;;;5.18;;
39266;SDS011;24967;51.154;13.812;2023-06-14T04:46:44;4.72;;;4.43;;
39266;SDS011;24967;51.154;13.812;2023-06-14T04:49:12;4.95;;;4.05;;
39266;SDS011;24967;51.154;13.812;2023-06-14T04:51:41;5.03;;;4.63;;
39266;SDS011;24967;51.154;13.812;2023-06-14T04:54:08;4.85;;;4.45;;
39266;SDS011;24967;51.154;13.812;2023-06-14T04:56:38;5.68;;;4.55;;
39266;SDS011;24967;51.154;13.812;2023-06-14T04:59:05;5.93;;;4.20;;
39266;SDS011;24967;51.154;13.812;2023-06-14T05:01:31;6.90;;;4.72;;
39266;SDS011;24967;51.154;13.812;2023-06-14T05:03:58;5.18;;;4.70;;
39266;SDS011;24967;51.154;13.812;2023-06-14T05:06:24;5.30;;;4.80;;
39266;SDS011;24967;51.154;13.812;2023-06-14T05:08:53;5.18;;;4.78;;
39266;SDS011;24967;51.154;13.812;2023-06-14T05:11:20;5.00;;;4.50;;
39266;SDS011;24967;51.154;13.812;2023-06-14T05:13:49;5.93;;;4.45;;
39266;SDS011;24967;51.154;13.812;2023-06-14T05:16:15;5.30;;;4.80;;
39266;SDS011;24967;51.154;13.812;2023-06-14T05:18:44;5.43;;;4.78;;
39266;SDS011;24967;51.154;13.812;2023-06-14T05:21:11;5.05;;;4.55;;
39266;SDS011;24967;51.154;13.812;2023-06-14T05:23:37;5.85;;;5.25;;
39266;SDS011;24967;51.154;13.812;2023-06-14T05:26:05;5.03;;;4.63;;
39266;SDS011;24967;51.154;13.812;2023-06-14T05:28:31;4.72;;;4.32;;
39266;SDS011;24967;51.154;13.812;2023-06-14T05:30:58;4.88;;;4.47;;
39266;SDS011;24967;51.154;13.812;2023-06-14T05:33:24;4.97;;;4.68;;
39266;SDS011;24967;51.154;13.812;2023-06-14T05:35:51;4.47;;;4.00;;
39266;SDS011;24967;51.154;13.812;2023-06-14T05:38:18;5.03;;;3.70;;
39266;SDS011;24967;51.154;13.812;2023-06-14T05:40:44;4.35;;;3.95;;
39266;SDS011;24967;51.154;13.812;2023-06-14T05:43:12;5.18;;;4.28;;
39266;SDS011;24967;51.154;13.812;2023-06-14T05:45:38;4.35;;;4.05;;
39266;SDS011;24967;51.154;13.812;2023-06-14T05:48:05;3.88;;;3.58;;
39266;SDS011;24967;51.154;13.812;2023-06-14T05:50:31;4.30;;;3.90;;
39266;SDS011;24967;51.154;13.812;2023-06-14T05:52:58;3.75;;;3.38;;
39266;SDS011;24967;51.154;13.812;2023-06-14T05:55:25;4.15;;;3.72;;
39266;SDS011;24967;51.154;13.812;2023-06-14T05:57:51;5.55;;;3.83;;
39266;SDS011;24967;51.154;13.812;2023-06-14T06:00:20;3.58;;;3.25;;
39266;SDS011;24967;51.154;13.812;2023-06-14T06:02:47;4.85;;;3.90;;
39266;SDS011;24967;51.154;13.812;2023-06-14T06:05:14;4.18;;;3.78;;
39266;SDS011;24967;51.154;13.812;2023-06-14T06:07:41;8.23;;;4.00;;
39266;SDS011;24967;51.154;13.812;2023-06-14T06:10:09;3.80;;;3.40;;
39266;SDS011;24967;51.154;13.812;2023-06-14T06:12:36;7.07;;;3.25;;
39266;SDS011;24967;51.154;13.812;2023-06-14T06:15:02;3.78;;;3.47;;
39266;SDS011;24967;51.154;13.812;2023-06-14T06:17:30;3.88;;;3.58;;
39266;SDS011;24967;51.154;13.812;2023-06-14T06:19:57;3.60;;;3.40;;
39266;SDS011;24967;51.154;13.812;2023-06-14T06:22:23;3.78;;;3.47;;
39266;SDS011;24967;51.154;13.812;2023-06-14T06:24:50;4.40;;;3.28;;
39266;SDS011;24967;51.154;13.812;2023-06-14T06:27:16;3.38;;;3.08;;
39266;SDS011;24967;51.154;13.812;2023-06-14T06:29:43;3.53;;;3.22;;
39266;SDS011;24967;51.154;13.812;2023-06-14T06:32:10;3.95;;;3.50;;
39266;SDS011;24967;51.154;13.812;2023-06-14T06:34:38;3.30;;;3.00;;
39266;SDS011;24967;51.154;13.812;2023-06-14T06:37:05;3.47;;;3.28;;
39266;SDS011;24967;51.154;13.812;2023-06-14T06:39:32;3.45;;;3.25;;
39266;SDS011;24967;51.154;13.812;2023-06-14T06:41:59;3.70;;;3.40;;
39266;SDS011;24967;51.154;13.812;2023-06-14T06:44:25;4.05;;;2.70;;
39266;SDS011;24967;51.154;13.812;2023-06-14T06:46:51;3.63;;;3.13;;
39266;SDS011;24967;51.154;13.812;2023-06-14T06:49:18;5.50;;;3.00;;
39266;SDS011;24967;51.154;13.812;2023-06-14T06:51:53;2.90;;;2.70;;
39266;SDS011;24967;51.154;13.812;2023-06-14T06:54:25;2.53;;;2.40;;
39266;SDS011;24967;51.154;13.812;2023-06-14T06:56:52;2.80;;;2.60;;
39266;SDS011;24967;51.154;13.812;2023-06-14T06:59:18;7.40;;;3.15;;
39266;SDS011;24967;51.154;13.812;2023-06-14T07:01:45;2.97;;;2.80;;
39266;SDS011;24967;51.154;13.812;2023-06-14T07:04:12;2.58;;;2.47;;
39266;SDS011;24967;51.154;13.812;2023-06-14T07:06:39;2.78;;;2.55;;
39266;SDS011;24967;51.154;13.812;2023-06-14T07:09:06;2.40;;;2.28;;
39266;SDS011;24967;51.154;13.812;2023-06-14T07:11:37;3.10;;;2.47;;
39266;SDS011;24967;51.154;13.812;2023-06-14T07:14:04;3.50;;;2.63;;
39266;SDS011;24967;51.154;13.812;2023-06-14T07:16:31;3.92;;;2.40;;
39266;SDS011;24967;51.154;13.812;2023-06-14T07:18:58;2.20;;;2.10;;
39266;SDS011;24967;51.154;13.812;2023-06-14T07:21:25;2.30;;;2.20;;
39266;SDS011;24967;51.154;13.812;2023-06-14T07:23:52;2.88;;;2.28;;
39266;SDS011;24967;51.154;13.812;2023-06-14T07:26:20;4.25;;;2.25;;
39266;SDS011;24967;51.154;13.812;2023-06-14T07:28:47;2.42;;;2.33;;
39266;SDS011;24967;51.154;13.812;2023-06-14T07:31:15;2.40;;;2.20;;
39266;SDS011;24967;51.154;13.812;2023-06-14T07:33:43;2.83;;;2.47;;
39266;SDS011;24967;51.154;13.812;2023-06-14T07:36:09;2.35;;;2.25;;
39266;SDS011;24967;51.154;13.812;2023-06-14T07:38:36;2.42;;;2.22;;
39266;SDS011;24967;51.154;13.812;2023-06-14T07:41:02;2.40;;;2.20;;
39266;SDS011;24967;51.154;13.812;2023-06-14T07:43:30;2.08;;;1.98;;
39266;SDS011;24967;51.154;13.812;2023-06-14T07:45:56;2.47;;;2.22;;
39266;SDS011;24967;51.154;13.812;2023-06-14T07:48:23;2.05;;;1.95;;
39266;SDS011;24967;51.154;13.812;2023-06-14T07:50:50;5.13;;;2.00;;
39266;SDS011;24967;51.154;13.812;2023-06-14T07:53:16;3.08;;;2.38;;
39266;SDS011;24967;51.154;13.812;2023-06-14T07:55:42;2.78;;;2.40;;
39266;SDS011;24967;51.154;13.812;2023-06-14T07:58:09;2.13;;;2.03;;
39266;SDS011;24967;51.154;13.812;2023-06-14T08:00:37;2.10;;;2.00;;
39266;SDS011;24967;51.154;13.812;2023-06-14T08:03:03;1.90;;;1.80;;
39266;SDS011;24967;51.154;13.812;2023-06-14T08:05:30;2.20;;;2.00;;
39266;SDS011;24967;51.154;13.812;2023-06-14T08:07:56;2.00;;;1.90;;
39266;SDS011;24967;51.154;13.812;2023-06-14T08:10:23;2.17;;;1.98;;
39266;SDS011;24967;51.154;13.812;2023-06-14T08:12:50;1.83;;;1.75;;
39266;SDS011;24967;51.154;13.812;2023-06-14T08:15:17;2.17;;;1.95;;
39266;SDS011;24967;51.154;13.812;2023-06-14T08:17:46;1.85;;;1.75;;
39266;SDS011;24967;51.154;13.812;2023-06-14T08:20:12;2.08;;;1.98;;
39266;SDS011;24967;51.154;13.812;2023-06-14T08:22:42;1.75;;;1.65;;
39266;SDS011;24967;51.154;13.812;2023-06-14T08:25:08;2.38;;;1.60;;
39266;SDS011;24967;51.154;13.812;2023-06-14T08:27:36;2.53;;;1.90;;
39266;SDS011;24967;51.154;13.812;2023-06-14T08:30:02;2.00;;;1.90;;
39266;SDS011;24967;51.154;13.812;2023-06-14T08:32:29;2.30;;;2.20;;
39266;SDS011;24967;51.154;13.812;2023-06-14T08:34:57;2.40;;;2.20;;
39266;SDS011;24967;51.154;13.812;2023-06-14T08:37:23;2.63;;;2.20;;
39266;SDS011;24967;51.154;13.812;2023-06-14T08:39:52;2.97;;;2.33;;
39266;SDS011;24967;51.154;13.812;2023-06-14T08:42:18;2.85;;;2.58;;
39266;SDS011;24967;51.154;13.812;2023-06-14T08:44:50;2.60;;;2.50;;
39266;SDS011;24967;51.154;13.812;2023-06-14T08:47:17;2.47;;;2.08;;
39266;SDS011;24967;51.154;13.812;2023-06-14T08:49:46;2.50;;;2.38;;
39266;SDS011;24967;51.154;13.812;2023-06-14T08:52:15;2.50;;;2.35;;
39266;SDS011;24967;51.154;13.812;2023-06-14T08:54:45;2.70;;;2.40;;
39266;SDS011;24967;51.154;13.812;2023-06-14T08:57:13;4.45;;;2.60;;
39266;SDS011;24967;51.154;13.812;2023-06-14T08:59:45;2.67;;;2.13;;
39266;SDS011;24967;51.154;13.812;2023-06-14T09:02:14;4.22;;;2.47;;
39266;SDS011;24967;51.154;13.812;2023-06-14T09:04:42;2.72;;;2.53;;
39266;SDS011;24967;51.154;13.812;2023-06-14T09:07:09;2.90;;;2.70;;
39266;SDS011;24967;51.154;13.812;2023-06-14T09:09:39;2.83;;;2.17;;
39266;SDS011;24967;51.154;13.812;2023-06-14T09:12:07;2.80;;;2.47;;
39266;SDS011;24967;51.154;13.812;2023-06-14T09:14:36;3.25;;;3.00;;
39266;SDS011;24967;51.154;13.812;2023-06-14T09:17:04;2.70;;;2.53;;
39266;SDS011;24967;51.154;13.812;2023-06-14T09:19:31;4.53;;;3.00;;
39266;SDS011;24967;51.154;13.812;2023-06-14T09:21:58;2.75;;;2.55;;
39266;SDS011;24967;51.154;13.812;2023-06-14T09:24:24;3.10;;;2.90;;
39266;SDS011;24967;51.154;13.812;2023-06-14T09:26:54;3.40;;;2.97;;
39266;SDS011;24967;51.154;13.812;2023-06-14T09:29:20;3.95;;;2.95;;
39266;SDS011;24967;51.154;13.812;2023-06-14T09:31:47;3.63;;;2.80;;
39266;SDS011;24967;51.154;13.812;2023-06-14T09:34:13;2.88;;;2.67;;
39266;SDS011;24967;51.154;13.812;2023-06-14T09:36:43;2.97;;;2.75;;
39266;SDS011;24967;51.154;13.812;2023-06-14T09:39:09;4.05;;;3.25;;
39266;SDS011;24967;51.154;13.812;2023-06-14T09:41:36;3.28;;;3.08;;
39266;SDS011;24967;51.154;13.812;2023-06-14T09:44:06;3.17;;;2.97;;
39266;SDS011;24967;51.154;13.812;2023-06-14T09:46:34;2.75;;;2.65;;
39266;SDS011;24967;51.154;13.812;2023-06-14T09:49:01;2.80;;;2.60;;
39266;SDS011;24967;51.154;13.812;2023-06-14T09:51:29;3.22;;;2.60;;
39266;SDS011;24967;51.154;13.812;2023-06-14T09:53:58;2.15;;;2.05;;
39266;SDS011;24967;51.154;13.812;2023-06-14T09:56:28;2.38;;;2.17;;
39266;SDS011;24967;51.154;13.812;2023-06-14T09:58:57;2.45;;;2.35;;
39266;SDS011;24967;51.154;13.812;2023-06-14T10:01:26;2.75;;;2.30;;
39266;SDS011;24967;51.154;13.812;2023-06-14T10:04:00;3.17;;;2.40;;
39266;SDS011;24967;51.154;13.812;2023-06-14T10:06:29;2.30;;;2.00;;
39266;SDS011;24967;51.154;13.812;2023-06-14T10:08:56;3.03;;;2.28;;
39266;SDS011;24967;51.154;13.812;2023-06-14T10:11:24;2.80;;;2.60;;
39266;SDS011;24967;51.154;13.812;2023-06-14T10:13:52;2.33;;;2.17;;
39266;SDS011;24967;51.154;13.812;2023-06-14T10:16:19;2.58;;;2.42;;
39266;SDS011;24967;51.154;13.812;2023-06-14T10:18:51;3.00;;;2.80;;
39266;SDS011;24967;51.154;13.812;2023-06-14T10:21:27;3.05;;;2.85;;
39266;SDS011;24967;51.154;13.812;2023-06-14T10:23:59;3.03;;;2.83;;
39266;SDS011;24967;51.154;13.812;2023-06-14T10:26:31;4.72;;;2.60;;
39266;SDS011;24967;51.154;13.812;2023-06-14T10:28:58;2.67;;;2.47;;
39266;SDS011;24967;51.154;13.812;2023-06-14T10:31:42;3.60;;;2.90;;
39266;SDS011;24967;51.154;13.812;2023-06-14T10:34:10;2.75;;;2.55;;
39266;SDS011;24967;51.154;13.812;2023-06-14T10:36:37;2.67;;;2.47;;
39266;SDS011;24967;51.154;13.812;2023-06-14T10:39:06;3.28;;;2.97;;
39266;SDS011;24967;51.154;13.812;2023-06-14T10:41:35;2.95;;;2.75;;
39266;SDS011;24967;51.154;13.812;2023-06-14T10:47:06;3.55;;;2.97;;
39266;SDS011;24967;51.154;13.812;2023-06-14T10:49:40;3.40;;;3.20;;
39266;SDS011;24967;51.154;13.812;2023-06-14T10:52:08;3.85;;;3.03;;
39266;SDS011;24967;51.154;13.812;2023-06-14T10:54:58;3.10;;;2.90;;
39266;SDS011;24967;51.154;13.812;2023-06-14T10:57:31;9.27;;;3.25;;
39266;SDS011;24967;51.154;13.812;2023-06-14T10:59:58;5.68;;;2.92;;
39266;SDS011;24967;51.154;13.812;2023-06-14T11:02:35;3.45;;;2.58;;
39266;SDS011;24967;51.154;13.812;2023-06-14T11:05:23;2.90;;;2.70;;
39266;SDS011;24967;51.154;13.812;2023-06-14T11:07:58;3.65;;;2.65;;
39266;SDS011;24967;51.154;13.812;2023-06-14T11:10:41;2.67;;;2.47;;
39266;SDS011;24967;51.154;13.812;2023-06-14T11:13:10;2.28;;;2.17;;
39266;SDS011;24967;51.154;13.812;2023-06-14T11:15:37;2.53;;;2.35;;
39266;SDS011;24967;51.154;13.812;2023-06-14T11:18:05;2.58;;;2.25;;
39266;SDS011;24967;51.154;13.812;2023-06-14T11:20:36;2.22;;;2.13;;
39266;SDS011;24967;51.154;13.812;2023-06-14T11:23:03;2.17;;;2.08;;
39266;SDS011;24967;51.154;13.812;2023-06-14T11:25:30;2.38;;;2.20;;
39266;SDS011;24967;51.154;13.812;2023-06-14T11:27:56;2.58;;;2.42;;
39266;SDS011;24967;51.154;13.812;2023-06-14T11:30:23;2.85;;;2.65;;
39266;SDS011;24967;51.154;13.812;2023-06-14T11:32:51;2.40;;;2.30;;
39266;SDS011;24967;51.154;13.812;2023-06-14T11:35:20;17.98;;;3.58;;
39266;SDS011;24967;51.154;13.812;2023-06-14T11:37:50;2.58;;;2.45;;
39266;SDS011;24967;51.154;13.812;2023-06-14T11:40:19;3.28;;;2.50;;
39266;SDS011;24967;51.154;13.812;2023-06-14T11:42:45;3.30;;;2.50;;
39266;SDS011;24967;51.154;13.812;2023-06-14T11:45:12;2.38;;;2.10;;
39266;SDS011;24967;51.154;13.812;2023-06-14T11:47:39;2.47;;;2.38;;
39266;SDS011;24967;51.154;13.812;2023-06-14T11:50:06;2.97;;;2.78;;
39266;SDS011;24967;51.154;13.812;2023-06-14T11:52:35;2.80;;;2.60;;
39266;SDS011;24967;51.154;13.812;2023-06-14T11:55:04;3.17;;;2.88;;
39266;SDS011;24967;51.154;13.812;2023-06-14T11:57:33;2.92;;;2.72;;
39266;SDS011;24967;51.154;13.812;2023-06-14T12:00:00;4.95;;;3.17;;
39266;SDS011;24967;51.154;13.812;2023-06-14T12:02:31;3.42;;;3.13;;
39266;SDS011;24967;51.154;13.812;2023-06-14T12:05:03;3.63;;;3.42;;
39266;SDS011;24967;51.154;13.812;2023-06-14T12:07:31;7.10;;;3.60;;
39266;SDS011;24967;51.154;13.812;2023-06-14T12:10:08;3.60;;;3.40;;
39266;SDS011;24967;51.154;13.812;2023-06-14T12:12:36;3.33;;;3.13;;
39266;SDS011;24967;51.154;13.812;2023-06-14T12:15:04;3.65;;;3.45;;
39266;SDS011;24967;51.154;13.812;2023-06-14T12:17:31;3.60;;;3.35;;
39266;SDS011;24967;51.154;13.812;2023-06-14T12:20:04;3.40;;;3.10;;
39266;SDS011;24967;51.154;13.812;2023-06-14T12:22:33;2.85;;;2.65;;
39266;SDS011;24967;51.154;13.812;2023-06-14T12:25:00;3.05;;;2.85;;
39266;SDS011;24967;51.154;13.812;2023-06-14T12:27:31;3.05;;;2.63;;
39266;SDS011;24967;51.154;13.812;2023-06-14T12:29:58;3.08;;;2.80;;
39266;SDS011;24967;51.154;13.812;2023-06-14T12:32:27;2.70;;;2.50;;
39266;SDS011;24967;51.154;13.812;2023-06-14T12:34:54;3.42;;;2.50;;
39266;SDS011;24967;51.154;13.812;2023-06-14T12:37:21;2.88;;;2.67;;
39266;SDS011;24967;51.154;13.812;2023-06-14T12:39:47;2.63;;;2.53;;
39266;SDS011;24967;51.154;13.812;2023-06-14T12:42:15;2.67;;;2.45;;
39266;SDS011;24967;51.154;13.812;2023-06-14T12:44:44;3.95;;;2.78;;
39266;SDS011;24967;51.154;13.812;2023-06-14T12:47:10;2.90;;;2.70;;
39266;SDS011;24967;51.154;13.812;2023-06-14T12:49:38;5.57;;;2.58;;
39266;SDS011;24967;51.154;13.812;2023-06-14T12:52:06;4.38;;;2.67;;
39266;SDS011;24967;51.154;13.812;2023-06-14T12:54:33;3.03;;;2.83;;
39266;SDS011;24967;51.154;13.812;2023-06-14T12:57:00;4.22;;;3.03;;
39266;SDS011;24967;51.154;13.812;2023-06-14T12:59:26;3.97;;;3.03;;
39266;SDS011;24967;51.154;13.812;2023-06-14T13:01:59;5.35;;;2.47;;
39266;SDS011;24967;51.154;13.812;2023-06-14T13:04:35;2.75;;;2.55;;
39266;SDS011;24967;51.154;13.812;2023-06-14T13:07:02;3.20;;;2.90;;
39266;SDS011;24967;51.154;13.812;2023-06-14T13:09:29;4.60;;;2.85;;
39266;SDS011;24967;51.154;13.812;2023-06-14T13:11:55;2.55;;;2.35;;
39266;SDS011;24967;51.154;13.812;2023-06-14T13:14:21;2.75;;;2.10;;
39266;SDS011;24967;51.154;13.812;2023-06-14T13:16:48;2.78;;;2.10;;
39266;SDS011;24967;51.154;13.812;2023-06-14T13:19:16;4.07;;;2.22;;
39266;SDS011;24967;51.154;13.812;2023-06-14T13:21:42;2.63;;;2.40;;
39266;SDS011;24967;51.154;13.812;2023-06-14T13:24:09;3.75;;;2.55;;
39266;SDS011;24967;51.154;13.812;2023-06-14T13:26:35;3.13;;;2.25;;
39266;SDS011;24967;51.154;13.812;2023-06-14T13:29:02;2.92;;;1.95;;
39266;SDS011;24967;51.154;13.812;2023-06-14T13:31:28;2.15;;;2.05;;
39266;SDS011;24967;51.154;13.812;2023-06-14T13:33:55;2.58;;;2.00;;
39266;SDS011;24967;51.154;13.812;2023-06-14T13:36:23;2.28;;;1.65;;
39266;SDS011;24967;51.154;13.812;2023-06-14T13:38:50;2.30;;;2.20;;
39266;SDS011;24967;51.154;13.812;2023-06-14T13:41:17;3.70;;;2.17;;
39266;SDS011;24967;51.154;13.812;2023-06-14T13:43:44;3.15;;;2.30;;
39266;SDS011;24967;51.154;13.812;2023-06-14T13:46:10;2.08;;;1.98;;
39266;SDS011;24967;51.154;13.812;2023-06-14T13:48:37;5.50;;;2.08;;
39266;SDS011;24967;51.154;13.812;2023-06-14T13:51:04;2.00;;;1.90;;
39266;SDS011;24967;51.154;13.812;2023-06-14T13:53:31;3.10;;;1.95;;
39266;SDS011;24967;51.154;13.812;2023-06-14T13:55:58;2.88;;;1.80;;
39266;SDS011;24967;51.154;13.812;2023-06-14T13:58:24;2.28;;;2.10;;
39266;SDS011;24967;51.154;13.812;2023-06-14T14:00:51;5.47;;;1.92;;
39266;SDS011;24967;51.154;13.812;2023-06-14T14:03:19;2.10;;;1.90;;
39266;SDS011;24967;51.154;13.812;2023-06-14T14:05:46;2.35;;;2.22;;
39266;SDS011;24967;51.154;13.812;2023-06-14T14:08:12;2.83;;;1.98;;
39266;SDS011;24967;51.154;13.812;2023-06-14T14:10:40;2.40;;;2.20;;
39266;SDS011;24967;51.154;13.812;2023-06-14T14:13:07;2.30;;;2.20;;
39266;SDS011;24967;51.154;13.812;2023-06-14T14:15:33;2.15;;;1.80;;
39266;SDS011;24967;51.154;13.812;2023-06-14T14:18:00;3.03;;;2.13;;
39266;SDS011;24967;51.154;13.812;2023-06-14T14:20:29;3.05;;;2.47;;
39266;SDS011;24967;51.154;13.812;2023-06-14T14:22:56;2.30;;;2.15;;
39266;SDS011;24967;51.154;13.812;2023-06-14T14:25:22;2.53;;;2.42;;
39266;SDS011;24967;51.154;13.812;2023-06-14T14:27:50;2.83;;;2.30;;
39266;SDS011;24967;51.154;13.812;2023-06-14T14:30:16;2.92;;;2.53;;
39266;SDS011;24967;51.154;13.812;2023-06-14T14:32:45;3.70;;;2.30;;
39266;SDS011;24967;51.154;13.812;2023-06-14T14:35:13;2.25;;;2.10;;
39266;SDS011;24967;51.154;13.812;2023-06-14T14:37:39;2.05;;;1.95;;
39266;SDS011;24967;51.154;13.812;2023-06-14T14:40:06;2.63;;;2.08;;